sensor_id;sensor_type;location;lat;lon;timestamp;temperature;humidity
25939;DHT22;13739;51.172;4.466;2022-12-18T00:00:22;-3.50;99.90
25939;DHT22;13739;51.172;4.466;2022-12-18T00:02:49;-3.60;99.90
25939;DHT22;13739;51.172;4.466;2022-12-18T00:05:16;-3.60;99.90
25939;DHT22;13739;51.172;4.466;2022-12-18T00:07:42;-3.50;99.90
25939;DHT22;13739;51.172;4.466;2022-12-18T00:10:09;-3.50;99.90
25939;DHT22;13739;51.172;4.466;2022-12-18T00:12:35;-3.40;99.90
25939;DHT22;13739;51.172;4.466;2022-12-18T00:15:01;-3.40;99.90
25939;DHT22;13739;51.172;4.466;2022-12-18T00:17:27;-3.60;99.90
25939;DHT22;13739;51.172;4.466;2022-12-18T00:19:53;-3.40;99.90
25939;DHT22;13739;51.172;4.466;2022-12-18T00:22:20;-3.50;99.90
25939;DHT22;13739;51.172;4.466;2022-12-18T00:27:33;-3.50;99.90
25939;DHT22;13739;51.172;4.466;2022-12-18T00:38:03;-3.30;99.90
25939;DHT22;13739;51.172;4.466;2022-12-18T00:40:28;-3.20;99.90
25939;DHT22;13739;51.172;4.466;2022-12-18T00:42:54;-3.10;99.90
25939;DHT22;13739;51.172;4.466;2022-12-18T00:45:29;-3.20;99.90
25939;DHT22;13739;51.172;4.466;2022-12-18T00:47:58;-3.20;99.90
25939;DHT22;13739;51.172;4.466;2022-12-18T00:50:27;-3.30;99.90
25939;DHT22;13739;51.172;4.466;2022-12-18T00:52:56;-3.50;99.90
25939;DHT22;13739;51.172;4.466;2022-12-18T00:55:23;-3.30;99.90
25939;DHT22;13739;51.172;4.466;2022-12-18T00:57:53;-3.60;99.90
25939;DHT22;13739;51.172;4.466;2022-12-18T01:00:26;-3.60;99.90
25939;DHT22;13739;51.172;4.466;2022-12-18T01:02:58;-3.60;99.90
25939;DHT22;13739;51.172;4.466;2022-12-18T01:05:38;-3.90;99.90
25939;DHT22;13739;51.172;4.466;2022-12-18T01:08:09;-3.80;99.90
25939;DHT22;13739;51.172;4.466;2022-12-18T01:10:36;-4.10;99.90
25939;DHT22;13739;51.172;4.466;2022-12-18T01:13:02;-3.90;99.90
25939;DHT22;13739;51.172;4.466;2022-12-18T01:15:31;-3.90;99.90
25939;DHT22;13739;51.172;4.466;2022-12-18T01:17:57;-4.10;99.90
25939;DHT22;13739;51.172;4.466;2022-12-18T01:20:24;-4.00;99.90
25939;DHT22;13739;51.172;4.466;2022-12-18T01:22:52;-4.00;99.90
25939;DHT22;13739;51.172;4.466;2022-12-18T01:25:19;-4.00;99.90
25939;DHT22;13739;51.172;4.466;2022-12-18T01:27:47;-3.70;99.90
25939;DHT22;13739;51.172;4.466;2022-12-18T01:30:16;-3.80;99.90
25939;DHT22;13739;51.172;4.466;2022-12-18T01:32:44;-3.80;99.90
25939;DHT22;13739;51.172;4.466;2022-12-18T01:35:11;-3.70;99.90
25939;DHT22;13739;51.172;4.466;2022-12-18T01:37:38;-3.80;99.90
25939;DHT22;13739;51.172;4.466;2022-12-18T01:40:07;-4.00;99.90
25939;DHT22;13739;51.172;4.466;2022-12-18T01:42:35;-4.20;99.90
25939;DHT22;13739;51.172;4.466;2022-12-18T01:45:08;-4.10;99.90
25939;DHT22;13739;51.172;4.466;2022-12-18T01:47:52;-4.00;99.90
25939;DHT22;13739;51.172;4.466;2022-12-18T01:50:40;-3.90;99.90
25939;DHT22;13739;51.172;4.466;2022-12-18T01:53:17;-4.00;99.90
25939;DHT22;13739;51.172;4.466;2022-12-18T01:55:55;-4.20;99.90
25939;DHT22;13739;51.172;4.466;2022-12-18T02:01:12;-4.20;99.90
25939;DHT22;13739;51.172;4.466;2022-12-18T02:03:46;-4.20;99.90
25939;DHT22;13739;51.172;4.466;2022-12-18T02:06:40;-4.00;99.90
25939;DHT22;13739;51.172;4.466;2022-12-18T02:09:24;-4.10;99.90
25939;DHT22;13739;51.172;4.466;2022-12-18T02:15:10;-4.10;99.90
25939;DHT22;13739;51.172;4.466;2022-12-18T02:17:55;-4.10;99.90
25939;DHT22;13739;51.172;4.466;2022-12-18T02:20:52;-4.00;99.90
25939;DHT22;13739;51.172;4.466;2022-12-18T02:46:58;-4.00;99.90
25939;DHT22;13739;51.172;4.466;2022-12-18T02:55:40;-3.80;99.90
25939;DHT22;13739;51.172;4.466;2022-12-18T03:01:24;-3.80;99.90
25939;DHT22;13739;51.172;4.466;2022-12-18T03:06:48;-4.10;99.90
25939;DHT22;13739;51.172;4.466;2022-12-18T03:12:02;-4.30;99.90
25939;DHT22;13739;51.172;4.466;2022-12-18T03:34:49;-4.10;99.90
25939;DHT22;13739;51.172;4.466;2022-12-18T03:37:17;-4.20;99.90
25939;DHT22;13739;51.172;4.466;2022-12-18T03:39:44;-4.00;99.90
25939;DHT22;13739;51.172;4.466;2022-12-18T04:21:52;-4.30;99.90
25939;DHT22;13739;51.172;4.466;2022-12-18T04:24:20;-4.40;99.90
25939;DHT22;13739;51.172;4.466;2022-12-18T04:39:55;-4.10;99.90
25939;DHT22;13739;51.172;4.466;2022-12-18T05:08:38;-4.30;99.90
25939;DHT22;13739;51.172;4.466;2022-12-18T05:29:15;-4.30;99.90
25939;DHT22;13739;51.172;4.466;2022-12-18T05:31:42;-4.60;99.90
25939;DHT22;13739;51.172;4.466;2022-12-18T05:36:39;-4.40;99.90
25939;DHT22;13739;51.172;4.466;2022-12-18T05:39:05;-4.50;99.90
25939;DHT22;13739;51.172;4.466;2022-12-18T05:41:32;-4.70;99.90
25939;DHT22;13739;51.172;4.466;2022-12-18T05:43:59;-4.70;99.90
25939;DHT22;13739;51.172;4.466;2022-12-18T05:46:29;-4.90;99.90
25939;DHT22;13739;51.172;4.466;2022-12-18T05:48:58;-5.00;99.90
25939;DHT22;13739;51.172;4.466;2022-12-18T05:51:28;-5.20;99.90
25939;DHT22;13739;51.172;4.466;2022-12-18T05:53:54;-4.80;99.90
25939;DHT22;13739;51.172;4.466;2022-12-18T05:56:22;-4.70;99.90
25939;DHT22;13739;51.172;4.466;2022-12-18T05:58:54;-4.90;99.90
25939;DHT22;13739;51.172;4.466;2022-12-18T06:01:23;-4.80;99.90
25939;DHT22;13739;51.172;4.466;2022-12-18T06:03:51;-4.60;99.90
25939;DHT22;13739;51.172;4.466;2022-12-18T06:06:19;-4.50;99.90
25939;DHT22;13739;51.172;4.466;2022-12-18T06:16:33;-4.80;99.90
25939;DHT22;13739;51.172;4.466;2022-12-18T06:19:04;-4.60;99.90
25939;DHT22;13739;51.172;4.466;2022-12-18T06:21:33;-4.70;99.90
25939;DHT22;13739;51.172;4.466;2022-12-18T06:39:32;-4.70;99.90
25939;DHT22;13739;51.172;4.466;2022-12-18T06:42:00;-4.70;99.90
25939;DHT22;13739;51.172;4.466;2022-12-18T06:44:25;-4.90;99.90
25939;DHT22;13739;51.172;4.466;2022-12-18T06:46:52;-5.10;99.90
25939;DHT22;13739;51.172;4.466;2022-12-18T07:33:25;-5.40;99.90
25939;DHT22;13739;51.172;4.466;2022-12-18T08:17:15;-4.80;99.90
25939;DHT22;13739;51.172;4.466;2022-12-18T08:19:42;-4.40;99.90
25939;DHT22;13739;51.172;4.466;2022-12-18T08:22:09;-4.60;99.90
25939;DHT22;13739;51.172;4.466;2022-12-18T08:24:38;-4.50;99.90
25939;DHT22;13739;51.172;4.466;2022-12-18T08:37:35;-4.20;99.90
25939;DHT22;13739;51.172;4.466;2022-12-18T09:13:41;-3.50;99.90
25939;DHT22;13739;51.172;4.466;2022-12-18T09:16:07;-3.50;99.90
25939;DHT22;13739;51.172;4.466;2022-12-18T09:31:30;-2.80;99.90
25939;DHT22;13739;51.172;4.466;2022-12-18T09:36:26;-2.70;99.90
25939;DHT22;13739;51.172;4.466;2022-12-18T09:39:02;-2.20;99.90
25939;DHT22;13739;51.172;4.466;2022-12-18T09:41:56;-2.50;99.90
25939;DHT22;13739;51.172;4.466;2022-12-18T09:45:00;-2.40;99.90
25939;DHT22;13739;51.172;4.466;2022-12-18T09:47:53;-2.40;99.90
25939;DHT22;13739;51.172;4.466;2022-12-18T09:50:31;-2.30;99.90
25939;DHT22;13739;51.172;4.466;2022-12-18T09:53:04;-2.10;99.90
25939;DHT22;13739;51.172;4.466;2022-12-18T09:55:40;-1.80;99.90
25939;DHT22;13739;51.172;4.466;2022-12-18T10:01:22;-1.80;99.90
25939;DHT22;13739;51.172;4.466;2022-12-18T10:03:48;-2.00;99.90
25939;DHT22;13739;51.172;4.466;2022-12-18T10:10:19;-2.00;99.90
25939;DHT22;13739;51.172;4.466;2022-12-18T10:15:52;-2.00;99.90
25939;DHT22;13739;51.172;4.466;2022-12-18T10:20:52;-1.90;99.90
25939;DHT22;13739;51.172;4.466;2022-12-18T10:26:06;-1.50;99.90
25939;DHT22;13739;51.172;4.466;2022-12-18T10:28:35;-1.50;99.90
25939;DHT22;13739;51.172;4.466;2022-12-18T10:31:01;-1.50;99.90
25939;DHT22;13739;51.172;4.466;2022-12-18T10:33:29;-1.20;99.90
25939;DHT22;13739;51.172;4.466;2022-12-18T10:35:56;-1.20;99.90
25939;DHT22;13739;51.172;4.466;2022-12-18T10:38:24;-1.00;99.90
25939;DHT22;13739;51.172;4.466;2022-12-18T10:43:30;-1.10;99.90
25939;DHT22;13739;51.172;4.466;2022-12-18T10:51:05;-1.10;99.90
25939;DHT22;13739;51.172;4.466;2022-12-18T10:53:33;-1.00;99.90
25939;DHT22;13739;51.172;4.466;2022-12-18T10:55:59;-1.00;99.90
25939;DHT22;13739;51.172;4.466;2022-12-18T10:58:28;-1.10;99.90
25939;DHT22;13739;51.172;4.466;2022-12-18T11:03:44;-1.00;99.90
25939;DHT22;13739;51.172;4.466;2022-12-18T11:06:15;-0.70;99.90
25939;DHT22;13739;51.172;4.466;2022-12-18T11:08:43;-0.60;99.90
25939;DHT22;13739;51.172;4.466;2022-12-18T11:11:20;-0.50;99.90
25939;DHT22;13739;51.172;4.466;2022-12-18T11:14:04;-0.60;99.90
25939;DHT22;13739;51.172;4.466;2022-12-18T11:16:36;-0.50;99.90
25939;DHT22;13739;51.172;4.466;2022-12-18T11:19:24;-0.40;99.90
25939;DHT22;13739;51.172;4.466;2022-12-18T11:21:51;-0.60;99.90
25939;DHT22;13739;51.172;4.466;2022-12-18T11:26:51;-0.50;99.90
25939;DHT22;13739;51.172;4.466;2022-12-18T11:29:22;-0.40;99.90
25939;DHT22;13739;51.172;4.466;2022-12-18T11:31:49;-0.10;99.90
25939;DHT22;13739;51.172;4.466;2022-12-18T11:34:28;-0.20;99.90
25939;DHT22;13739;51.172;4.466;2022-12-18T11:36:58;-0.20;99.90
25939;DHT22;13739;51.172;4.466;2022-12-18T11:39:42;-0.10;99.90
25939;DHT22;13739;51.172;4.466;2022-12-18T11:42:20;-0.40;99.90
25939;DHT22;13739;51.172;4.466;2022-12-18T11:47:28;-0.30;99.90
25939;DHT22;13739;51.172;4.466;2022-12-18T11:49:56;-0.40;99.90
25939;DHT22;13739;51.172;4.466;2022-12-18T11:52:37;-0.10;99.90
25939;DHT22;13739;51.172;4.466;2022-12-18T11:55:15;-0.10;99.90
25939;DHT22;13739;51.172;4.466;2022-12-18T12:00:20;0.10;99.90
25939;DHT22;13739;51.172;4.466;2022-12-18T12:19:51;-0.10;99.90
25939;DHT22;13739;51.172;4.466;2022-12-18T12:34:04;0.20;99.90
25939;DHT22;13739;51.172;4.466;2022-12-18T12:39:40;0.30;99.90
25939;DHT22;13739;51.172;4.466;2022-12-18T12:42:16;0.20;99.90
25939;DHT22;13739;51.172;4.466;2022-12-18T12:45:05;0.30;99.90
25939;DHT22;13739;51.172;4.466;2022-12-18T12:47:38;0.50;99.90
25939;DHT22;13739;51.172;4.466;2022-12-18T12:50:12;0.50;99.90
25939;DHT22;13739;51.172;4.466;2022-12-18T12:52:51;0.60;99.90
25939;DHT22;13739;51.172;4.466;2022-12-18T12:55:28;0.50;99.90
25939;DHT22;13739;51.172;4.466;2022-12-18T12:57:57;0.60;99.90
25939;DHT22;13739;51.172;4.466;2022-12-18T13:00:25;0.50;99.90
25939;DHT22;13739;51.172;4.466;2022-12-18T13:03:11;0.60;99.90
25939;DHT22;13739;51.172;4.466;2022-12-18T13:08:09;0.60;99.90
25939;DHT22;13739;51.172;4.466;2022-12-18T13:10:37;0.60;99.90
25939;DHT22;13739;51.172;4.466;2022-12-18T13:13:05;0.70;99.90
25939;DHT22;13739;51.172;4.466;2022-12-18T13:23:00;1.00;99.90
25939;DHT22;13739;51.172;4.466;2022-12-18T13:25:30;0.80;99.90
25939;DHT22;13739;51.172;4.466;2022-12-18T13:40:55;0.70;99.90
25939;DHT22;13739;51.172;4.466;2022-12-18T13:46:04;0.80;99.90
25939;DHT22;13739;51.172;4.466;2022-12-18T13:48:33;0.80;99.90
25939;DHT22;13739;51.172;4.466;2022-12-18T13:51:07;0.70;99.90
25939;DHT22;13739;51.172;4.466;2022-12-18T13:53:38;0.80;99.90
25939;DHT22;13739;51.172;4.466;2022-12-18T13:56:05;0.90;99.90
25939;DHT22;13739;51.172;4.466;2022-12-18T13:58:31;0.80;99.90
25939;DHT22;13739;51.172;4.466;2022-12-18T14:00:57;0.80;99.90
25939;DHT22;13739;51.172;4.466;2022-12-18T14:03:27;0.90;99.90
25939;DHT22;13739;51.172;4.466;2022-12-18T14:05:56;0.70;99.90
25939;DHT22;13739;51.172;4.466;2022-12-18T14:08:23;0.70;99.90
25939;DHT22;13739;51.172;4.466;2022-12-18T14:10:50;0.80;99.90
25939;DHT22;13739;51.172;4.466;2022-12-18T14:13:24;0.90;99.90
25939;DHT22;13739;51.172;4.466;2022-12-18T14:15:53;1.00;99.90
25939;DHT22;13739;51.172;4.466;2022-12-18T14:18:33;1.10;99.90
25939;DHT22;13739;51.172;4.466;2022-12-18T14:21:03;0.70;99.90
25939;DHT22;13739;51.172;4.466;2022-12-18T14:23:41;0.80;99.90
25939;DHT22;13739;51.172;4.466;2022-12-18T14:26:27;0.90;99.90
25939;DHT22;13739;51.172;4.466;2022-12-18T14:28:59;0.90;99.90
25939;DHT22;13739;51.172;4.466;2022-12-18T14:31:30;0.90;99.90
25939;DHT22;13739;51.172;4.466;2022-12-18T14:33:56;0.80;99.90
25939;DHT22;13739;51.172;4.466;2022-12-18T14:36:27;0.90;99.90
25939;DHT22;13739;51.172;4.466;2022-12-18T14:38:57;0.70;99.90
25939;DHT22;13739;51.172;4.466;2022-12-18T14:41:25;0.70;99.90
25939;DHT22;13739;51.172;4.466;2022-12-18T14:43:52;0.90;99.90
25939;DHT22;13739;51.172;4.466;2022-12-18T14:48:59;0.80;99.90
25939;DHT22;13739;51.172;4.466;2022-12-18T14:51:27;0.80;99.90
25939;DHT22;13739;51.172;4.466;2022-12-18T14:53:59;0.90;99.90
25939;DHT22;13739;51.172;4.466;2022-12-18T14:56:34;0.90;99.90
25939;DHT22;13739;51.172;4.466;2022-12-18T14:59:15;1.10;99.90
25939;DHT22;13739;51.172;4.466;2022-12-18T15:02:07;0.70;99.90
25939;DHT22;13739;51.172;4.466;2022-12-18T15:04:38;0.80;99.90
25939;DHT22;13739;51.172;4.466;2022-12-18T15:07:20;0.80;99.90
25939;DHT22;13739;51.172;4.466;2022-12-18T15:12:41;0.90;99.90
25939;DHT22;13739;51.172;4.466;2022-12-18T15:18:24;0.90;99.90
25939;DHT22;13739;51.172;4.466;2022-12-18T15:20:56;0.70;99.90
25939;DHT22;13739;51.172;4.466;2022-12-18T15:23:38;0.80;99.90
25939;DHT22;13739;51.172;4.466;2022-12-18T15:26:08;0.80;99.90
25939;DHT22;13739;51.172;4.466;2022-12-18T15:36:20;0.80;99.90
25939;DHT22;13739;51.172;4.466;2022-12-18T15:38:51;0.90;99.90
25939;DHT22;13739;51.172;4.466;2022-12-18T15:41:22;0.90;99.90
25939;DHT22;13739;51.172;4.466;2022-12-18T15:43:49;1.00;99.90
25939;DHT22;13739;51.172;4.466;2022-12-18T15:46:18;0.90;99.90
25939;DHT22;13739;51.172;4.466;2022-12-18T15:48:49;0.80;99.90
25939;DHT22;13739;51.172;4.466;2022-12-18T15:51:23;0.80;99.90
25939;DHT22;13739;51.172;4.466;2022-12-18T15:53:52;1.00;99.90
25939;DHT22;13739;51.172;4.466;2022-12-18T15:56:19;1.10;99.90
25939;DHT22;13739;51.172;4.466;2022-12-18T15:59:15;1.00;99.90
25939;DHT22;13739;51.172;4.466;2022-12-18T16:01:44;1.20;99.90
25939;DHT22;13739;51.172;4.466;2022-12-18T16:04:14;1.30;99.90
25939;DHT22;13739;51.172;4.466;2022-12-18T16:06:41;1.10;99.90
25939;DHT22;13739;51.172;4.466;2022-12-18T16:09:07;1.30;99.90
25939;DHT22;13739;51.172;4.466;2022-12-18T16:11:34;1.60;99.90
25939;DHT22;13739;51.172;4.466;2022-12-18T16:14:25;1.60;99.90
25939;DHT22;13739;51.172;4.466;2022-12-18T16:16:57;1.50;99.90
25939;DHT22;13739;51.172;4.466;2022-12-18T16:19:22;1.60;99.90
25939;DHT22;13739;51.172;4.466;2022-12-18T16:21:50;1.50;99.90
25939;DHT22;13739;51.172;4.466;2022-12-18T16:24:21;1.30;99.90
25939;DHT22;13739;51.172;4.466;2022-12-18T16:26:48;1.20;99.90
25939;DHT22;13739;51.172;4.466;2022-12-18T16:29:14;1.30;99.90
25939;DHT22;13739;51.172;4.466;2022-12-18T16:31:40;1.30;99.90
25939;DHT22;13739;51.172;4.466;2022-12-18T16:36:49;1.60;99.90
25939;DHT22;13739;51.172;4.466;2022-12-18T16:39:16;1.40;99.90
25939;DHT22;13739;51.172;4.466;2022-12-18T16:41:42;1.40;99.90
25939;DHT22;13739;51.172;4.466;2022-12-18T16:44:08;1.60;99.90
25939;DHT22;13739;51.172;4.466;2022-12-18T16:46:34;1.50;99.90
25939;DHT22;13739;51.172;4.466;2022-12-18T16:49:00;1.50;99.90
25939;DHT22;13739;51.172;4.466;2022-12-18T16:51:27;1.30;99.90
25939;DHT22;13739;51.172;4.466;2022-12-18T16:53:54;1.30;99.90
25939;DHT22;13739;51.172;4.466;2022-12-18T16:56:20;1.30;99.90
25939;DHT22;13739;51.172;4.466;2022-12-18T16:58:57;1.30;99.90
25939;DHT22;13739;51.172;4.466;2022-12-18T17:01:24;1.40;99.90
25939;DHT22;13739;51.172;4.466;2022-12-18T17:06:24;1.60;99.90
25939;DHT22;13739;51.172;4.466;2022-12-18T17:08:57;1.70;99.90
25939;DHT22;13739;51.172;4.466;2022-12-18T17:11:24;1.40;99.90
25939;DHT22;13739;51.172;4.466;2022-12-18T17:13:50;1.40;99.90
25939;DHT22;13739;51.172;4.466;2022-12-18T17:16:16;1.50;99.90
25939;DHT22;13739;51.172;4.466;2022-12-18T17:18:42;1.60;99.90
25939;DHT22;13739;51.172;4.466;2022-12-18T17:21:09;1.50;99.90
25939;DHT22;13739;51.172;4.466;2022-12-18T17:23:36;1.60;99.90
25939;DHT22;13739;51.172;4.466;2022-12-18T17:26:02;1.60;99.90
25939;DHT22;13739;51.172;4.466;2022-12-18T17:28:29;1.50;99.90
25939;DHT22;13739;51.172;4.466;2022-12-18T17:30:56;1.50;99.90
25939;DHT22;13739;51.172;4.466;2022-12-18T17:33:22;1.60;99.90
25939;DHT22;13739;51.172;4.466;2022-12-18T17:35:48;1.70;99.90
25939;DHT22;13739;51.172;4.466;2022-12-18T17:38:14;1.70;99.90
25939;DHT22;13739;51.172;4.466;2022-12-18T17:40:40;1.70;99.90
25939;DHT22;13739;51.172;4.466;2022-12-18T17:43:07;1.60;99.90
25939;DHT22;13739;51.172;4.466;2022-12-18T17:45:39;1.70;99.90
25939;DHT22;13739;51.172;4.466;2022-12-18T17:48:06;2.10;99.90
25939;DHT22;13739;51.172;4.466;2022-12-18T17:50:34;2.00;99.90
25939;DHT22;13739;51.172;4.466;2022-12-18T17:53:00;2.00;99.90
25939;DHT22;13739;51.172;4.466;2022-12-18T17:55:26;1.90;99.90
25939;DHT22;13739;51.172;4.466;2022-12-18T17:57:52;2.20;99.90
25939;DHT22;13739;51.172;4.466;2022-12-18T18:00:18;1.90;99.90
25939;DHT22;13739;51.172;4.466;2022-12-18T18:02:44;1.80;99.90
25939;DHT22;13739;51.172;4.466;2022-12-18T18:05:10;1.90;99.90
25939;DHT22;13739;51.172;4.466;2022-12-18T18:07:37;2.20;99.90
25939;DHT22;13739;51.172;4.466;2022-12-18T18:10:05;2.10;99.90
25939;DHT22;13739;51.172;4.466;2022-12-18T18:12:31;2.00;99.90
25939;DHT22;13739;51.172;4.466;2022-12-18T18:15:15;1.90;99.90
25939;DHT22;13739;51.172;4.466;2022-12-18T18:17:41;2.00;99.90
25939;DHT22;13739;51.172;4.466;2022-12-18T18:20:07;1.80;99.90
25939;DHT22;13739;51.172;4.466;2022-12-18T18:22:33;1.80;99.90
25939;DHT22;13739;51.172;4.466;2022-12-18T18:24:59;1.80;99.90
25939;DHT22;13739;51.172;4.466;2022-12-18T18:27:25;1.60;99.90
25939;DHT22;13739;51.172;4.466;2022-12-18T18:29:50;1.70;99.90
25939;DHT22;13739;51.172;4.466;2022-12-18T18:32:16;1.90;99.90
25939;DHT22;13739;51.172;4.466;2022-12-18T18:34:42;2.00;99.90
25939;DHT22;13739;51.172;4.466;2022-12-18T18:37:08;1.90;99.90
25939;DHT22;13739;51.172;4.466;2022-12-18T18:39:34;1.80;99.90
25939;DHT22;13739;51.172;4.466;2022-12-18T18:42:00;1.80;99.90
25939;DHT22;13739;51.172;4.466;2022-12-18T18:44:26;1.90;99.90
25939;DHT22;13739;51.172;4.466;2022-12-18T18:46:53;1.90;99.90
25939;DHT22;13739;51.172;4.466;2022-12-18T18:49:19;1.80;99.90
25939;DHT22;13739;51.172;4.466;2022-12-18T18:51:45;2.10;99.90
25939;DHT22;13739;51.172;4.466;2022-12-18T18:54:10;1.90;99.90
25939;DHT22;13739;51.172;4.466;2022-12-18T18:56:36;1.80;99.90
25939;DHT22;13739;51.172;4.466;2022-12-18T18:59:02;1.90;99.90
25939;DHT22;13739;51.172;4.466;2022-12-18T19:01:27;1.90;99.90
25939;DHT22;13739;51.172;4.466;2022-12-18T19:03:53;2.00;99.90
25939;DHT22;13739;51.172;4.466;2022-12-18T19:06:22;2.00;99.90
25939;DHT22;13739;51.172;4.466;2022-12-18T19:08:49;2.20;99.90
25939;DHT22;13739;51.172;4.466;2022-12-18T19:11:15;2.20;99.90
25939;DHT22;13739;51.172;4.466;2022-12-18T19:14:02;2.20;99.90
25939;DHT22;13739;51.172;4.466;2022-12-18T19:16:27;2.30;99.90
25939;DHT22;13739;51.172;4.466;2022-12-18T19:18:54;2.20;99.90
25939;DHT22;13739;51.172;4.466;2022-12-18T19:21:20;2.10;99.90
25939;DHT22;13739;51.172;4.466;2022-12-18T19:23:47;2.20;99.90
25939;DHT22;13739;51.172;4.466;2022-12-18T19:26:14;2.10;99.90
25939;DHT22;13739;51.172;4.466;2022-12-18T19:28:40;1.90;99.90
25939;DHT22;13739;51.172;4.466;2022-12-18T19:31:08;1.80;99.90
25939;DHT22;13739;51.172;4.466;2022-12-18T19:33:37;1.90;99.90
25939;DHT22;13739;51.172;4.466;2022-12-18T19:36:11;1.90;99.90
25939;DHT22;13739;51.172;4.466;2022-12-18T19:38:37;1.90;99.90
25939;DHT22;13739;51.172;4.466;2022-12-18T19:41:07;2.00;99.90
25939;DHT22;13739;51.172;4.466;2022-12-18T19:43:33;2.00;99.90
25939;DHT22;13739;51.172;4.466;2022-12-18T19:46:01;1.90;99.90
25939;DHT22;13739;51.172;4.466;2022-12-18T19:48:27;1.90;99.90
25939;DHT22;13739;51.172;4.466;2022-12-18T19:50:53;2.00;99.90
25939;DHT22;13739;51.172;4.466;2022-12-18T19:53:18;1.90;99.90
25939;DHT22;13739;51.172;4.466;2022-12-18T19:55:44;1.90;99.90
25939;DHT22;13739;51.172;4.466;2022-12-18T19:58:10;1.90;99.90
25939;DHT22;13739;51.172;4.466;2022-12-18T20:00:35;2.10;99.90
25939;DHT22;13739;51.172;4.466;2022-12-18T20:03:01;2.10;99.90
25939;DHT22;13739;51.172;4.466;2022-12-18T20:05:27;2.20;99.90
25939;DHT22;13739;51.172;4.466;2022-12-18T20:07:53;2.00;99.90
25939;DHT22;13739;51.172;4.466;2022-12-18T20:10:19;2.20;99.90
25939;DHT22;13739;51.172;4.466;2022-12-18T20:12:46;2.20;99.90
25939;DHT22;13739;51.172;4.466;2022-12-18T20:15:12;2.10;99.90
25939;DHT22;13739;51.172;4.466;2022-12-18T20:17:38;1.90;99.90
25939;DHT22;13739;51.172;4.466;2022-12-18T20:20:04;1.90;99.90
25939;DHT22;13739;51.172;4.466;2022-12-18T20:22:31;1.90;99.90
25939;DHT22;13739;51.172;4.466;2022-12-18T20:24:59;1.80;99.90
25939;DHT22;13739;51.172;4.466;2022-12-18T20:27:28;1.90;99.90
25939;DHT22;13739;51.172;4.466;2022-12-18T20:29:54;2.10;99.90
25939;DHT22;13739;51.172;4.466;2022-12-18T20:32:19;2.30;99.90
25939;DHT22;13739;51.172;4.466;2022-12-18T20:34:45;2.10;99.90
25939;DHT22;13739;51.172;4.466;2022-12-18T20:37:11;2.00;99.90
25939;DHT22;13739;51.172;4.466;2022-12-18T20:39:37;2.10;99.90
25939;DHT22;13739;51.172;4.466;2022-12-18T20:42:03;1.90;99.90
25939;DHT22;13739;51.172;4.466;2022-12-18T20:44:28;2.00;99.90
25939;DHT22;13739;51.172;4.466;2022-12-18T20:46:56;2.20;99.90
25939;DHT22;13739;51.172;4.466;2022-12-18T20:49:23;2.10;99.90
25939;DHT22;13739;51.172;4.466;2022-12-18T20:51:51;2.00;99.90
25939;DHT22;13739;51.172;4.466;2022-12-18T20:54:17;2.10;99.90
25939;DHT22;13739;51.172;4.466;2022-12-18T20:56:42;2.40;99.90
25939;DHT22;13739;51.172;4.466;2022-12-18T20:59:08;2.20;99.90
25939;DHT22;13739;51.172;4.466;2022-12-18T21:01:34;1.90;99.90
25939;DHT22;13739;51.172;4.466;2022-12-18T21:04:00;2.10;99.90
25939;DHT22;13739;51.172;4.466;2022-12-18T21:06:25;2.30;99.90
25939;DHT22;13739;51.172;4.466;2022-12-18T21:08:51;2.10;99.90
25939;DHT22;13739;51.172;4.466;2022-12-18T21:14:08;2.00;99.90
25939;DHT22;13739;51.172;4.466;2022-12-18T21:16:34;2.00;99.90
25939;DHT22;13739;51.172;4.466;2022-12-18T21:18:59;2.30;99.90
25939;DHT22;13739;51.172;4.466;2022-12-18T21:21:25;2.10;99.90
25939;DHT22;13739;51.172;4.466;2022-12-18T21:23:51;2.30;99.90
25939;DHT22;13739;51.172;4.466;2022-12-18T21:26:20;2.30;99.90
25939;DHT22;13739;51.172;4.466;2022-12-18T21:28:47;2.20;99.90
25939;DHT22;13739;51.172;4.466;2022-12-18T21:31:16;1.90;99.90
25939;DHT22;13739;51.172;4.466;2022-12-18T21:33:42;1.90;99.90
25939;DHT22;13739;51.172;4.466;2022-12-18T21:36:08;2.10;99.90
25939;DHT22;13739;51.172;4.466;2022-12-18T21:38:34;2.20;99.90
25939;DHT22;13739;51.172;4.466;2022-12-18T21:41:05;2.20;99.90
25939;DHT22;13739;51.172;4.466;2022-12-18T21:43:32;2.20;99.90
25939;DHT22;13739;51.172;4.466;2022-12-18T21:46:16;2.30;99.90
25939;DHT22;13739;51.172;4.466;2022-12-18T21:48:41;2.30;99.90
25939;DHT22;13739;51.172;4.466;2022-12-18T21:51:08;2.30;99.90
25939;DHT22;13739;51.172;4.466;2022-12-18T21:53:34;2.20;99.90
25939;DHT22;13739;51.172;4.466;2022-12-18T21:56:01;2.30;99.90
25939;DHT22;13739;51.172;4.466;2022-12-18T21:58:27;2.30;99.90
25939;DHT22;13739;51.172;4.466;2022-12-18T22:00:52;2.20;99.90
25939;DHT22;13739;51.172;4.466;2022-12-18T22:03:18;2.20;99.90
25939;DHT22;13739;51.172;4.466;2022-12-18T22:05:44;2.20;99.90
25939;DHT22;13739;51.172;4.466;2022-12-18T22:08:10;2.20;99.90
25939;DHT22;13739;51.172;4.466;2022-12-18T22:10:36;2.20;99.90
25939;DHT22;13739;51.172;4.466;2022-12-18T22:13:02;2.30;99.90
25939;DHT22;13739;51.172;4.466;2022-12-18T22:15:28;2.20;99.90
25939;DHT22;13739;51.172;4.466;2022-12-18T22:17:54;2.40;99.90
25939;DHT22;13739;51.172;4.466;2022-12-18T22:20:19;2.60;99.90
25939;DHT22;13739;51.172;4.466;2022-12-18T22:22:45;2.50;99.90
25939;DHT22;13739;51.172;4.466;2022-12-18T22:25:11;2.40;99.90
25939;DHT22;13739;51.172;4.466;2022-12-18T22:27:37;2.60;99.90
25939;DHT22;13739;51.172;4.466;2022-12-18T22:30:03;2.70;99.90
25939;DHT22;13739;51.172;4.466;2022-12-18T22:32:31;2.60;99.90
25939;DHT22;13739;51.172;4.466;2022-12-18T22:34:58;2.50;99.90
25939;DHT22;13739;51.172;4.466;2022-12-18T22:37:24;2.60;99.90
25939;DHT22;13739;51.172;4.466;2022-12-18T22:39:49;2.50;99.90
25939;DHT22;13739;51.172;4.466;2022-12-18T22:42:15;2.70;99.90
25939;DHT22;13739;51.172;4.466;2022-12-18T22:44:41;2.60;99.90
25939;DHT22;13739;51.172;4.466;2022-12-18T22:47:08;2.60;99.90
25939;DHT22;13739;51.172;4.466;2022-12-18T22:49:34;2.60;99.90
25939;DHT22;13739;51.172;4.466;2022-12-18T22:52:00;2.60;99.90
25939;DHT22;13739;51.172;4.466;2022-12-18T22:54:26;2.50;99.90
25939;DHT22;13739;51.172;4.466;2022-12-18T22:56:51;2.40;99.90
25939;DHT22;13739;51.172;4.466;2022-12-18T22:59:20;2.50;99.90
25939;DHT22;13739;51.172;4.466;2022-12-18T23:01:46;2.60;99.90
25939;DHT22;13739;51.172;4.466;2022-12-18T23:04:13;2.80;99.90
25939;DHT22;13739;51.172;4.466;2022-12-18T23:06:40;2.90;99.90
25939;DHT22;13739;51.172;4.466;2022-12-18T23:09:06;3.00;99.90
25939;DHT22;13739;51.172;4.466;2022-12-18T23:11:32;2.80;99.90
25939;DHT22;13739;51.172;4.466;2022-12-18T23:13:58;3.00;99.90
25939;DHT22;13739;51.172;4.466;2022-12-18T23:16:23;2.90;99.90
25939;DHT22;13739;51.172;4.466;2022-12-18T23:18:53;2.80;99.90
25939;DHT22;13739;51.172;4.466;2022-12-18T23:21:21;3.00;99.90
25939;DHT22;13739;51.172;4.466;2022-12-18T23:23:47;3.20;99.90
25939;DHT22;13739;51.172;4.466;2022-12-18T23:26:21;3.30;99.90
25939;DHT22;13739;51.172;4.466;2022-12-18T23:28:48;3.20;99.90
25939;DHT22;13739;51.172;4.466;2022-12-18T23:31:16;3.20;99.90